Erie, PA (16506)

9:44 AM EDT on September 30, 2016 (GMT -0400)
CARTER`S Lawn Care | | Change Station

Elev 836 ft 42.07 °N, 80.16 °W | Updated 14 seconds ago

Light Rain
Light Rain
58.5 °F
Feels Like 58.5 °F
N
0.0
Wind Variable Wind from NNE
Gusts 0.0 mph

Today
High -- | Low -- °F
--% Chance of Precip.
Yesterday
High -- | Low -- °F
Precip. -- in
Pressure 30.22 in
Visibility 8.0 miles
Clouds Mostly Cloudy 700 ft
Mostly Cloudy 9000 ft
Overcast 11000 ft
Dew Point 56 °F
Humidity 93%
Rainfall 0.38 in
Snow Depth Not available.
7:17 AM 7:03 PM
Waning Crescent, 0% visible
SPECI KERI 301324Z 06008KT 8SM -RA BKN007 BKN090 OVC110 14/13 A3022 RMK AO2 P0003 T01440133
Pressure 30.22 in
Visibility 8.0 miles
Clouds Mostly Cloudy 700 ft
Mostly Cloudy 9000 ft
Overcast 11000 ft
Dew Point 56 °F
Humidity 93%
Rainfall 0.38 in
Snow Depth Not available.
7:17 AM 7:03 PM
Waning Crescent, 0% visible
SPECI KERI 301324Z 06008KT 8SM -RA BKN007 BKN090 OVC110 14/13 A3022 RMK AO2 P0003 T01440133

10-Day Weather Forecast

Almanac

Astronomy

Sep. 30, 2016 Rise Set
Actual Time
Civil Twilight
Nautical Twilight
Astronomical Twilight
Moon
Length of Visible Light
Length of Day
Tomorrow will be .
, % of the Moon is Illuminated

Today's Extremes

State Highs State Lows

Community

WunderPhotos

Upload Photos

1,942,711 photos uploaded!

WunderBlog® & News

Nearby

Air Quality

  Air Quality AQ Index Pollutant
Not available.

Snow Depth

Station Depth Elevation

Earthquake Activity

City Distance Mag. Time & Date
Minimum magnitude displayed is 2.5.

Coastal Water Temperatures

Place Temperature

Stations

Nearby Weather Stations

Station Location Temp. Windchill Dew Point Humidity Wind Precip. Elev Updated Type
                   

Watches & Warnings

There are currently no watches in effect.